sensor_id;sensor_type;location;lat;lon;timestamp;P1;durP1;ratioP1;P2;durP2;ratioP2
45434;SDS011;31183;47.404;8.500;2023-06-10T00:02:05;5.88;;;4.47;;
45434;SDS011;31183;47.404;8.500;2023-06-10T00:04:32;6.43;;;5.47;;
45434;SDS011;31183;47.404;8.500;2023-06-10T00:06:58;6.65;;;4.63;;
45434;SDS011;31183;47.404;8.500;2023-06-10T00:09:25;6.00;;;4.65;;
45434;SDS011;31183;47.404;8.500;2023-06-10T00:11:52;5.00;;;4.50;;
45434;SDS011;31183;47.404;8.500;2023-06-10T00:14:19;5.90;;;5.13;;
45434;SDS011;31183;47.404;8.500;2023-06-10T00:16:46;5.82;;;5.32;;
45434;SDS011;31183;47.404;8.500;2023-06-10T00:19:12;6.63;;;4.70;;
45434;SDS011;31183;47.404;8.500;2023-06-10T00:21:40;5.93;;;5.22;;
45434;SDS011;31183;47.404;8.500;2023-06-10T00:24:07;6.72;;;5.50;;
45434;SDS011;31183;47.404;8.500;2023-06-10T00:26:41;7.95;;;5.13;;
45434;SDS011;31183;47.404;8.500;2023-06-10T00:29:07;7.47;;;4.75;;
45434;SDS011;31183;47.404;8.500;2023-06-10T00:31:35;5.10;;;4.60;;
45434;SDS011;31183;47.404;8.500;2023-06-10T00:34:03;6.40;;;4.80;;
45434;SDS011;31183;47.404;8.500;2023-06-10T00:36:30;6.03;;;4.82;;
45434;SDS011;31183;47.404;8.500;2023-06-10T00:38:57;5.22;;;4.80;;
45434;SDS011;31183;47.404;8.500;2023-06-10T00:41:24;7.00;;;4.72;;
45434;SDS011;31183;47.404;8.500;2023-06-10T00:43:52;7.75;;;4.93;;
45434;SDS011;31183;47.404;8.500;2023-06-10T00:46:19;5.90;;;4.72;;
45434;SDS011;31183;47.404;8.500;2023-06-10T00:48:47;5.63;;;4.82;;
45434;SDS011;31183;47.404;8.500;2023-06-10T00:51:14;5.82;;;4.93;;
45434;SDS011;31183;47.404;8.500;2023-06-10T00:53:42;6.88;;;5.07;;
45434;SDS011;31183;47.404;8.500;2023-06-10T00:56:09;5.30;;;4.80;;
45434;SDS011;31183;47.404;8.500;2023-06-10T00:58:36;5.03;;;4.53;;
45434;SDS011;31183;47.404;8.500;2023-06-10T01:01:04;5.03;;;4.60;;
45434;SDS011;31183;47.404;8.500;2023-06-10T01:03:30;6.72;;;4.80;;
45434;SDS011;31183;47.404;8.500;2023-06-10T01:09:24;7.80;;;5.47;;
45434;SDS011;31183;47.404;8.500;2023-06-10T01:12:05;5.78;;;5.20;;
45434;SDS011;31183;47.404;8.500;2023-06-10T01:14:52;7.85;;;6.78;;
45434;SDS011;31183;47.404;8.500;2023-06-10T01:17:20;11.48;;;8.85;;
45434;SDS011;31183;47.404;8.500;2023-06-10T01:19:54;11.95;;;9.80;;
45434;SDS011;31183;47.404;8.500;2023-06-10T01:22:25;13.68;;;6.88;;
45434;SDS011;31183;47.404;8.500;2023-06-10T01:24:58;6.93;;;6.07;;
45434;SDS011;31183;47.404;8.500;2023-06-10T01:27:26;10.57;;;9.38;;
45434;SDS011;31183;47.404;8.500;2023-06-10T01:29:59;7.68;;;6.85;;
45434;SDS011;31183;47.404;8.500;2023-06-10T01:32:38;8.40;;;6.05;;
45434;SDS011;31183;47.404;8.500;2023-06-10T01:35:09;6.70;;;5.38;;
45434;SDS011;31183;47.404;8.500;2023-06-10T01:37:38;7.47;;;5.70;;
45434;SDS011;31183;47.404;8.500;2023-06-10T01:40:09;9.90;;;7.55;;
45434;SDS011;31183;47.404;8.500;2023-06-10T01:42:37;5.72;;;5.07;;
45434;SDS011;31183;47.404;8.500;2023-06-10T01:45:04;6.68;;;5.80;;
45434;SDS011;31183;47.404;8.500;2023-06-10T01:47:31;6.38;;;5.32;;
45434;SDS011;31183;47.404;8.500;2023-06-10T01:49:58;10.20;;;6.43;;
45434;SDS011;31183;47.404;8.500;2023-06-10T01:52:25;5.43;;;4.93;;
45434;SDS011;31183;47.404;8.500;2023-06-10T01:54:52;9.95;;;5.63;;
45434;SDS011;31183;47.404;8.500;2023-06-10T01:57:19;6.65;;;5.72;;
45434;SDS011;31183;47.404;8.500;2023-06-10T01:59:46;6.63;;;5.85;;
45434;SDS011;31183;47.404;8.500;2023-06-10T02:02:12;6.07;;;5.43;;
45434;SDS011;31183;47.404;8.500;2023-06-10T02:04:39;5.63;;;5.15;;
45434;SDS011;31183;47.404;8.500;2023-06-10T02:07:06;6.57;;;5.20;;
45434;SDS011;31183;47.404;8.500;2023-06-10T02:09:32;6.93;;;5.72;;
45434;SDS011;31183;47.404;8.500;2023-06-10T02:12:02;5.75;;;5.25;;
45434;SDS011;31183;47.404;8.500;2023-06-10T02:14:30;6.13;;;5.53;;
45434;SDS011;31183;47.404;8.500;2023-06-10T02:16:58;6.40;;;5.90;;
45434;SDS011;31183;47.404;8.500;2023-06-10T02:19:25;5.90;;;5.40;;
45434;SDS011;31183;47.404;8.500;2023-06-10T02:21:52;6.75;;;5.00;;
45434;SDS011;31183;47.404;8.500;2023-06-10T02:24:19;6.97;;;6.38;;
45434;SDS011;31183;47.404;8.500;2023-06-10T02:26:46;5.70;;;5.20;;
45434;SDS011;31183;47.404;8.500;2023-06-10T02:29:14;7.82;;;5.80;;
45434;SDS011;31183;47.404;8.500;2023-06-10T02:31:40;6.40;;;5.80;;
45434;SDS011;31183;47.404;8.500;2023-06-10T02:34:07;6.63;;;6.03;;
45434;SDS011;31183;47.404;8.500;2023-06-10T02:36:34;5.90;;;5.30;;
45434;SDS011;31183;47.404;8.500;2023-06-10T02:39:02;6.93;;;6.15;;
45434;SDS011;31183;47.404;8.500;2023-06-10T02:41:30;6.97;;;5.75;;
45434;SDS011;31183;47.404;8.500;2023-06-10T02:43:57;6.88;;;6.18;;
45434;SDS011;31183;47.404;8.500;2023-06-10T02:46:23;6.30;;;5.70;;
45434;SDS011;31183;47.404;8.500;2023-06-10T02:48:50;8.25;;;6.22;;
45434;SDS011;31183;47.404;8.500;2023-06-10T02:51:18;6.95;;;6.25;;
45434;SDS011;31183;47.404;8.500;2023-06-10T02:53:44;7.20;;;6.50;;
45434;SDS011;31183;47.404;8.500;2023-06-10T02:56:11;7.47;;;5.97;;
45434;SDS011;31183;47.404;8.500;2023-06-10T02:58:39;6.60;;;5.95;;
45434;SDS011;31183;47.404;8.500;2023-06-10T03:01:06;9.15;;;6.57;;
45434;SDS011;31183;47.404;8.500;2023-06-10T03:03:33;7.22;;;6.53;;
45434;SDS011;31183;47.404;8.500;2023-06-10T03:06:00;7.97;;;7.03;;
45434;SDS011;31183;47.404;8.500;2023-06-10T03:08:27;7.30;;;6.40;;
45434;SDS011;31183;47.404;8.500;2023-06-10T03:10:54;8.20;;;7.05;;
45434;SDS011;31183;47.404;8.500;2023-06-10T03:13:21;7.10;;;6.40;;
45434;SDS011;31183;47.404;8.500;2023-06-10T03:15:47;8.15;;;7.20;;
45434;SDS011;31183;47.404;8.500;2023-06-10T03:18:14;7.05;;;6.45;;
45434;SDS011;31183;47.404;8.500;2023-06-10T03:20:42;9.70;;;7.50;;
45434;SDS011;31183;47.404;8.500;2023-06-10T03:23:10;7.32;;;6.63;;
45434;SDS011;31183;47.404;8.500;2023-06-10T03:25:37;9.13;;;7.15;;
45434;SDS011;31183;47.404;8.500;2023-06-10T03:28:04;7.93;;;6.82;;
45434;SDS011;31183;47.404;8.500;2023-06-10T03:30:30;7.55;;;6.60;;
45434;SDS011;31183;47.404;8.500;2023-06-10T03:32:57;7.07;;;6.38;;
45434;SDS011;31183;47.404;8.500;2023-06-10T03:35:24;8.55;;;6.22;;
45434;SDS011;31183;47.404;8.500;2023-06-10T03:37:51;7.75;;;7.00;;
45434;SDS011;31183;47.404;8.500;2023-06-10T03:40:17;7.00;;;6.30;;
45434;SDS011;31183;47.404;8.500;2023-06-10T03:42:44;6.47;;;5.88;;
45434;SDS011;31183;47.404;8.500;2023-06-10T03:45:10;8.05;;;6.82;;
45434;SDS011;31183;47.404;8.500;2023-06-10T03:47:38;7.45;;;6.78;;
45434;SDS011;31183;47.404;8.500;2023-06-10T03:50:07;10.00;;;6.82;;
45434;SDS011;31183;47.404;8.500;2023-06-10T03:52:35;7.82;;;6.90;;
45434;SDS011;31183;47.404;8.500;2023-06-10T03:55:02;7.25;;;6.47;;
45434;SDS011;31183;47.404;8.500;2023-06-10T03:57:29;6.68;;;6.05;;
45434;SDS011;31183;47.404;8.500;2023-06-10T03:59:56;7.15;;;6.50;;
45434;SDS011;31183;47.404;8.500;2023-06-10T04:02:24;6.72;;;6.07;;
45434;SDS011;31183;47.404;8.500;2023-06-10T04:04:51;8.40;;;6.65;;
45434;SDS011;31183;47.404;8.500;2023-06-10T04:07:17;6.95;;;5.88;;
45434;SDS011;31183;47.404;8.500;2023-06-10T04:09:46;7.15;;;6.53;;
45434;SDS011;31183;47.404;8.500;2023-06-10T04:12:13;8.18;;;6.30;;
45434;SDS011;31183;47.404;8.500;2023-06-10T04:14:40;10.68;;;7.30;;
45434;SDS011;31183;47.404;8.500;2023-06-10T04:17:08;7.90;;;7.20;;
45434;SDS011;31183;47.404;8.500;2023-06-10T04:19:35;8.45;;;7.35;;
45434;SDS011;31183;47.404;8.500;2023-06-10T04:22:02;9.43;;;7.10;;
45434;SDS011;31183;47.404;8.500;2023-06-10T04:24:29;9.63;;;7.60;;
45434;SDS011;31183;47.404;8.500;2023-06-10T04:26:56;9.52;;;6.90;;
45434;SDS011;31183;47.404;8.500;2023-06-10T04:29:23;7.38;;;6.68;;
45434;SDS011;31183;47.404;8.500;2023-06-10T04:31:50;7.97;;;7.22;;
45434;SDS011;31183;47.404;8.500;2023-06-10T04:34:17;7.60;;;6.80;;
45434;SDS011;31183;47.404;8.500;2023-06-10T04:36:43;7.32;;;6.63;;
45434;SDS011;31183;47.404;8.500;2023-06-10T04:39:10;6.93;;;6.22;;
45434;SDS011;31183;47.404;8.500;2023-06-10T04:41:37;7.07;;;6.22;;
45434;SDS011;31183;47.404;8.500;2023-06-10T04:44:04;7.75;;;6.60;;
45434;SDS011;31183;47.404;8.500;2023-06-10T04:46:30;7.18;;;6.50;;
45434;SDS011;31183;47.404;8.500;2023-06-10T04:48:57;7.22;;;6.53;;
45434;SDS011;31183;47.404;8.500;2023-06-10T04:51:24;6.95;;;6.32;;
45434;SDS011;31183;47.404;8.500;2023-06-10T04:53:51;7.63;;;6.93;;
45434;SDS011;31183;47.404;8.500;2023-06-10T04:56:18;8.73;;;7.78;;
45434;SDS011;31183;47.404;8.500;2023-06-10T04:58:45;9.07;;;8.15;;
45434;SDS011;31183;47.404;8.500;2023-06-10T05:01:12;10.73;;;7.05;;
45434;SDS011;31183;47.404;8.500;2023-06-10T05:03:38;7.63;;;6.93;;
45434;SDS011;31183;47.404;8.500;2023-06-10T05:06:14;6.97;;;6.35;;
45434;SDS011;31183;47.404;8.500;2023-06-10T05:08:41;8.60;;;7.13;;
45434;SDS011;31183;47.404;8.500;2023-06-10T05:11:07;7.32;;;6.63;;
45434;SDS011;31183;47.404;8.500;2023-06-10T05:13:34;9.23;;;6.88;;
45434;SDS011;31183;47.404;8.500;2023-06-10T05:16:01;9.90;;;7.38;;
45434;SDS011;31183;47.404;8.500;2023-06-10T05:18:28;9.07;;;8.10;;
45434;SDS011;31183;47.404;8.500;2023-06-10T05:20:55;9.88;;;8.57;;
45434;SDS011;31183;47.404;8.500;2023-06-10T05:23:21;10.20;;;8.40;;
45434;SDS011;31183;47.404;8.500;2023-06-10T05:25:48;8.35;;;7.65;;
45434;SDS011;31183;47.404;8.500;2023-06-10T05:28:15;11.95;;;7.32;;
45434;SDS011;31183;47.404;8.500;2023-06-10T05:30:41;7.78;;;7.10;;
45434;SDS011;31183;47.404;8.500;2023-06-10T05:33:08;8.30;;;7.50;;
45434;SDS011;31183;47.404;8.500;2023-06-10T05:35:35;7.78;;;7.13;;
45434;SDS011;31183;47.404;8.500;2023-06-10T05:38:02;9.07;;;8.23;;
45434;SDS011;31183;47.404;8.500;2023-06-10T05:40:29;8.77;;;7.93;;
45434;SDS011;31183;47.404;8.500;2023-06-10T05:42:56;8.15;;;7.43;;
45434;SDS011;31183;47.404;8.500;2023-06-10T05:45:22;8.88;;;8.10;;
45434;SDS011;31183;47.404;8.500;2023-06-10T05:47:49;8.85;;;7.95;;
45434;SDS011;31183;47.404;8.500;2023-06-10T05:50:17;32.03;;;10.00;;
45434;SDS011;31183;47.404;8.500;2023-06-10T05:52:43;9.32;;;8.45;;
45434;SDS011;31183;47.404;8.500;2023-06-10T05:55:10;8.52;;;7.72;;
45434;SDS011;31183;47.404;8.500;2023-06-10T05:57:37;8.35;;;7.55;;
45434;SDS011;31183;47.404;8.500;2023-06-10T06:00:04;8.80;;;7.57;;
45434;SDS011;31183;47.404;8.500;2023-06-10T06:02:31;10.40;;;8.50;;
45434;SDS011;31183;47.404;8.500;2023-06-10T06:04:58;11.77;;;8.65;;
45434;SDS011;31183;47.404;8.500;2023-06-10T06:07:25;8.80;;;7.90;;
45434;SDS011;31183;47.404;8.500;2023-06-10T06:09:52;9.13;;;8.23;;
45434;SDS011;31183;47.404;8.500;2023-06-10T06:12:18;11.65;;;8.07;;
45434;SDS011;31183;47.404;8.500;2023-06-10T06:14:45;8.27;;;7.50;;
45434;SDS011;31183;47.404;8.500;2023-06-10T06:17:12;8.90;;;8.15;;
45434;SDS011;31183;47.404;8.500;2023-06-10T06:19:39;9.10;;;7.53;;
45434;SDS011;31183;47.404;8.500;2023-06-10T06:22:05;9.52;;;8.63;;
45434;SDS011;31183;47.404;8.500;2023-06-10T06:24:32;8.57;;;7.70;;
45434;SDS011;31183;47.404;8.500;2023-06-10T06:26:59;9.00;;;8.10;;
45434;SDS011;31183;47.404;8.500;2023-06-10T06:29:25;9.93;;;8.88;;
45434;SDS011;31183;47.404;8.500;2023-06-10T06:31:53;9.10;;;8.18;;
45434;SDS011;31183;47.404;8.500;2023-06-10T06:34:20;10.20;;;9.27;;
45434;SDS011;31183;47.404;8.500;2023-06-10T06:36:46;8.20;;;7.40;;
45434;SDS011;31183;47.404;8.500;2023-06-10T06:39:13;20.15;;;7.97;;
45434;SDS011;31183;47.404;8.500;2023-06-10T06:41:39;9.52;;;8.55;;
45434;SDS011;31183;47.404;8.500;2023-06-10T06:44:06;9.32;;;8.48;;
45434;SDS011;31183;47.404;8.500;2023-06-10T06:46:33;9.65;;;8.75;;
45434;SDS011;31183;47.404;8.500;2023-06-10T06:48:59;9.23;;;8.43;;
45434;SDS011;31183;47.404;8.500;2023-06-10T06:51:26;9.90;;;8.30;;
45434;SDS011;31183;47.404;8.500;2023-06-10T06:53:53;15.30;;;8.68;;
45434;SDS011;31183;47.404;8.500;2023-06-10T06:56:22;9.82;;;7.90;;
45434;SDS011;31183;47.404;8.500;2023-06-10T06:58:49;9.23;;;8.32;;
45434;SDS011;31183;47.404;8.500;2023-06-10T07:01:16;8.27;;;7.40;;
45434;SDS011;31183;47.404;8.500;2023-06-10T07:03:42;8.57;;;7.88;;
45434;SDS011;31183;47.404;8.500;2023-06-10T07:06:09;18.08;;;9.88;;
45434;SDS011;31183;47.404;8.500;2023-06-10T07:08:36;9.75;;;8.73;;
45434;SDS011;31183;47.404;8.500;2023-06-10T07:11:02;8.82;;;8.13;;
45434;SDS011;31183;47.404;8.500;2023-06-10T07:13:29;9.73;;;8.93;;
45434;SDS011;31183;47.404;8.500;2023-06-10T07:15:56;10.30;;;9.50;;
45434;SDS011;31183;47.404;8.500;2023-06-10T07:18:22;9.13;;;8.32;;
45434;SDS011;31183;47.404;8.500;2023-06-10T07:20:49;10.02;;;8.98;;
45434;SDS011;31183;47.404;8.500;2023-06-10T07:23:15;9.55;;;8.65;;
45434;SDS011;31183;47.404;8.500;2023-06-10T07:25:42;10.00;;;8.38;;
45434;SDS011;31183;47.404;8.500;2023-06-10T07:28:09;9.52;;;8.63;;
45434;SDS011;31183;47.404;8.500;2023-06-10T07:30:35;8.77;;;7.93;;
45434;SDS011;31183;47.404;8.500;2023-06-10T07:33:02;10.73;;;8.32;;
45434;SDS011;31183;47.404;8.500;2023-06-10T07:35:29;9.48;;;8.60;;
45434;SDS011;31183;47.404;8.500;2023-06-10T07:37:56;8.73;;;8.02;;
45434;SDS011;31183;47.404;8.500;2023-06-10T07:40:23;8.82;;;8.13;;
45434;SDS011;31183;47.404;8.500;2023-06-10T07:42:50;10.48;;;9.48;;
45434;SDS011;31183;47.404;8.500;2023-06-10T07:45:17;9.70;;;8.75;;
45434;SDS011;31183;47.404;8.500;2023-06-10T07:47:43;9.40;;;8.10;;
45434;SDS011;31183;47.404;8.500;2023-06-10T07:50:11;9.98;;;8.85;;
45434;SDS011;31183;47.404;8.500;2023-06-10T07:52:37;9.65;;;8.68;;
45434;SDS011;31183;47.404;8.500;2023-06-10T07:55:04;10.57;;;9.65;;
45434;SDS011;31183;47.404;8.500;2023-06-10T07:57:31;10.98;;;9.80;;
45434;SDS011;31183;47.404;8.500;2023-06-10T08:00:01;11.07;;;9.48;;
45434;SDS011;31183;47.404;8.500;2023-06-10T08:02:30;8.85;;;8.13;;
45434;SDS011;31183;47.404;8.500;2023-06-10T08:04:56;10.80;;;8.63;;
45434;SDS011;31183;47.404;8.500;2023-06-10T08:07:23;8.93;;;8.18;;
45434;SDS011;31183;47.404;8.500;2023-06-10T08:09:50;9.30;;;8.57;;
45434;SDS011;31183;47.404;8.500;2023-06-10T08:12:17;9.57;;;8.77;;
45434;SDS011;31183;47.404;8.500;2023-06-10T08:14:44;9.65;;;7.57;;
45434;SDS011;31183;47.404;8.500;2023-06-10T08:17:11;9.55;;;8.32;;
45434;SDS011;31183;47.404;8.500;2023-06-10T08:19:37;9.25;;;8.40;;
45434;SDS011;31183;47.404;8.500;2023-06-10T08:22:04;9.07;;;8.20;;
45434;SDS011;31183;47.404;8.500;2023-06-10T08:24:31;9.15;;;8.45;;
45434;SDS011;31183;47.404;8.500;2023-06-10T08:26:58;9.27;;;8.20;;
45434;SDS011;31183;47.404;8.500;2023-06-10T08:29:25;9.57;;;8.68;;
45434;SDS011;31183;47.404;8.500;2023-06-10T08:31:52;9.70;;;8.90;;
45434;SDS011;31183;47.404;8.500;2023-06-10T08:34:18;9.35;;;8.55;;
45434;SDS011;31183;47.404;8.500;2023-06-10T08:36:45;8.75;;;7.82;;
45434;SDS011;31183;47.404;8.500;2023-06-10T08:39:12;13.57;;;8.40;;
45434;SDS011;31183;47.404;8.500;2023-06-10T08:41:41;9.27;;;8.45;;
45434;SDS011;31183;47.404;8.500;2023-06-10T08:44:12;9.65;;;7.97;;
45434;SDS011;31183;47.404;8.500;2023-06-10T08:46:45;8.35;;;7.65;;
45434;SDS011;31183;47.404;8.500;2023-06-10T08:49:14;11.25;;;7.97;;
45434;SDS011;31183;47.404;8.500;2023-06-10T08:51:44;8.68;;;7.97;;
45434;SDS011;31183;47.404;8.500;2023-06-10T08:54:15;8.23;;;7.53;;
45434;SDS011;31183;47.404;8.500;2023-06-10T08:56:48;8.65;;;7.75;;
45434;SDS011;31183;47.404;8.500;2023-06-10T08:59:17;8.02;;;7.32;;
45434;SDS011;31183;47.404;8.500;2023-06-10T09:01:46;8.63;;;7.80;;
45434;SDS011;31183;47.404;8.500;2023-06-10T09:04:13;9.20;;;7.50;;
45434;SDS011;31183;47.404;8.500;2023-06-10T09:06:40;8.80;;;7.05;;
45434;SDS011;31183;47.404;8.500;2023-06-10T09:09:07;10.48;;;9.68;;
45434;SDS011;31183;47.404;8.500;2023-06-10T09:11:34;8.40;;;7.70;;
45434;SDS011;31183;47.404;8.500;2023-06-10T09:14:01;7.75;;;6.95;;
45434;SDS011;31183;47.404;8.500;2023-06-10T09:16:27;7.40;;;6.80;;
45434;SDS011;31183;47.404;8.500;2023-06-10T09:18:54;9.00;;;8.13;;
45434;SDS011;31183;47.404;8.500;2023-06-10T09:21:22;8.35;;;7.40;;
45434;SDS011;31183;47.404;8.500;2023-06-10T09:23:49;9.35;;;7.70;;
45434;SDS011;31183;47.404;8.500;2023-06-10T09:26:16;8.55;;;7.95;;
45434;SDS011;31183;47.404;8.500;2023-06-10T09:28:44;8.63;;;7.38;;
45434;SDS011;31183;47.404;8.500;2023-06-10T09:31:13;10.77;;;8.05;;
45434;SDS011;31183;47.404;8.500;2023-06-10T09:33:44;10.23;;;7.35;;
45434;SDS011;31183;47.404;8.500;2023-06-10T09:36:11;8.57;;;7.88;;
45434;SDS011;31183;47.404;8.500;2023-06-10T09:38:49;8.13;;;7.47;;
45434;SDS011;31183;47.404;8.500;2023-06-10T09:41:16;11.20;;;7.38;;
45434;SDS011;31183;47.404;8.500;2023-06-10T09:43:44;11.80;;;10.00;;
45434;SDS011;31183;47.404;8.500;2023-06-10T09:46:16;9.18;;;8.30;;
45434;SDS011;31183;47.404;8.500;2023-06-10T09:48:44;11.23;;;10.23;;
45434;SDS011;31183;47.404;8.500;2023-06-10T09:51:11;11.25;;;10.25;;
45434;SDS011;31183;47.404;8.500;2023-06-10T09:53:39;10.15;;;9.15;;
45434;SDS011;31183;47.404;8.500;2023-06-10T09:56:06;9.00;;;8.13;;
45434;SDS011;31183;47.404;8.500;2023-06-10T09:58:37;10.40;;;9.40;;
45434;SDS011;31183;47.404;8.500;2023-06-10T10:01:05;8.45;;;7.72;;
45434;SDS011;31183;47.404;8.500;2023-06-10T10:03:33;8.38;;;7.72;;
45434;SDS011;31183;47.404;8.500;2023-06-10T10:06:00;8.10;;;7.40;;
45434;SDS011;31183;47.404;8.500;2023-06-10T10:08:27;8.55;;;7.43;;
45434;SDS011;31183;47.404;8.500;2023-06-10T10:10:55;7.60;;;6.88;;
45434;SDS011;31183;47.404;8.500;2023-06-10T10:13:23;8.27;;;7.53;;
45434;SDS011;31183;47.404;8.500;2023-06-10T10:15:51;8.65;;;7.72;;
45434;SDS011;31183;47.404;8.500;2023-06-10T10:18:19;9.90;;;9.00;;
45434;SDS011;31183;47.404;8.500;2023-06-10T10:20:54;9.38;;;8.50;;
45434;SDS011;31183;47.404;8.500;2023-06-10T10:23:28;11.73;;;9.85;;
45434;SDS011;31183;47.404;8.500;2023-06-10T10:25:59;10.82;;;8.63;;
45434;SDS011;31183;47.404;8.500;2023-06-10T10:28:34;9.93;;;9.02;;
45434;SDS011;31183;47.404;8.500;2023-06-10T10:31:10;9.20;;;8.40;;
45434;SDS011;31183;47.404;8.500;2023-06-10T10:36:15;9.43;;;8.60;;
45434;SDS011;31183;47.404;8.500;2023-06-10T10:38:42;8.95;;;8.18;;
45434;SDS011;31183;47.404;8.500;2023-06-10T10:41:11;11.55;;;10.45;;
45434;SDS011;31183;47.404;8.500;2023-06-10T10:43:39;10.55;;;9.55;;
45434;SDS011;31183;47.404;8.500;2023-06-10T10:46:11;10.50;;;9.00;;
45434;SDS011;31183;47.404;8.500;2023-06-10T10:48:39;9.00;;;8.13;;
45434;SDS011;31183;47.404;8.500;2023-06-10T10:51:09;9.10;;;8.30;;
45434;SDS011;31183;47.404;8.500;2023-06-10T10:53:37;10.48;;;9.50;;
45434;SDS011;31183;47.404;8.500;2023-06-10T10:56:05;9.85;;;9.05;;
45434;SDS011;31183;47.404;8.500;2023-06-10T10:58:34;10.65;;;9.55;;
45434;SDS011;31183;47.404;8.500;2023-06-10T11:01:09;10.88;;;9.88;;
45434;SDS011;31183;47.404;8.500;2023-06-10T11:03:44;10.60;;;9.00;;
45434;SDS011;31183;47.404;8.500;2023-06-10T11:06:14;8.90;;;8.10;;
45434;SDS011;31183;47.404;8.500;2023-06-10T11:11:17;10.48;;;8.50;;
45434;SDS011;31183;47.404;8.500;2023-06-10T11:13:57;8.55;;;7.80;;
45434;SDS011;31183;47.404;8.500;2023-06-10T11:16:27;8.73;;;7.70;;
45434;SDS011;31183;47.404;8.500;2023-06-10T11:18:55;8.35;;;7.65;;
45434;SDS011;31183;47.404;8.500;2023-06-10T11:21:23;8.60;;;7.70;;
45434;SDS011;31183;47.404;8.500;2023-06-10T11:23:57;9.85;;;7.45;;
45434;SDS011;31183;47.404;8.500;2023-06-10T11:29:02;9.48;;;8.55;;
45434;SDS011;31183;47.404;8.500;2023-06-10T11:31:35;8.18;;;7.28;;
45434;SDS011;31183;47.404;8.500;2023-06-10T11:34:06;10.75;;;8.05;;
45434;SDS011;31183;47.404;8.500;2023-06-10T11:36:34;9.05;;;8.25;;
45434;SDS011;31183;47.404;8.500;2023-06-10T11:39:08;8.18;;;7.43;;
45434;SDS011;31183;47.404;8.500;2023-06-10T11:41:36;8.73;;;7.82;;
45434;SDS011;31183;47.404;8.500;2023-06-10T11:44:07;8.43;;;7.72;;
45434;SDS011;31183;47.404;8.500;2023-06-10T11:46:36;8.90;;;8.00;;
45434;SDS011;31183;47.404;8.500;2023-06-10T11:49:04;8.80;;;8.10;;
45434;SDS011;31183;47.404;8.500;2023-06-10T11:51:32;8.73;;;7.93;;
45434;SDS011;31183;47.404;8.500;2023-06-10T11:54:03;8.57;;;7.65;;
45434;SDS011;31183;47.404;8.500;2023-06-10T11:56:31;8.32;;;7.63;;
45434;SDS011;31183;47.404;8.500;2023-06-10T11:59:02;8.20;;;7.43;;
45434;SDS011;31183;47.404;8.500;2023-06-10T12:01:32;8.52;;;7.72;;
45434;SDS011;31183;47.404;8.500;2023-06-10T12:04:01;9.27;;;8.38;;
45434;SDS011;31183;47.404;8.500;2023-06-10T12:06:44;8.98;;;8.02;;
45434;SDS011;31183;47.404;8.500;2023-06-10T12:09:17;9.20;;;8.30;;
45434;SDS011;31183;47.404;8.500;2023-06-10T12:11:54;9.13;;;8.32;;
45434;SDS011;31183;47.404;8.500;2023-06-10T12:20:00;9.07;;;8.18;;
45434;SDS011;31183;47.404;8.500;2023-06-10T12:22:36;7.95;;;7.10;;
45434;SDS011;31183;47.404;8.500;2023-06-10T12:25:07;7.45;;;6.82;;
45434;SDS011;31183;47.404;8.500;2023-06-10T12:27:36;7.40;;;6.80;;
45434;SDS011;31183;47.404;8.500;2023-06-10T12:30:04;8.10;;;7.28;;
45434;SDS011;31183;47.404;8.500;2023-06-10T12:32:35;6.68;;;6.10;;
45434;SDS011;31183;47.404;8.500;2023-06-10T12:35:07;6.93;;;5.80;;
45434;SDS011;31183;47.404;8.500;2023-06-10T12:37:36;7.32;;;6.65;;
45434;SDS011;31183;47.404;8.500;2023-06-10T12:40:08;10.25;;;6.70;;
45434;SDS011;31183;47.404;8.500;2023-06-10T12:42:36;7.93;;;7.32;;
45434;SDS011;31183;47.404;8.500;2023-06-10T12:45:04;7.57;;;6.88;;
45434;SDS011;31183;47.404;8.500;2023-06-10T12:50:02;7.20;;;6.50;;
45434;SDS011;31183;47.404;8.500;2023-06-10T12:52:30;6.25;;;5.65;;
45434;SDS011;31183;47.404;8.500;2023-06-10T12:54:58;6.35;;;5.85;;
45434;SDS011;31183;47.404;8.500;2023-06-10T12:57:26;6.78;;;6.18;;
45434;SDS011;31183;47.404;8.500;2023-06-10T12:59:53;6.47;;;5.85;;
45434;SDS011;31183;47.404;8.500;2023-06-10T13:02:20;7.65;;;6.95;;
45434;SDS011;31183;47.404;8.500;2023-06-10T13:04:47;7.30;;;6.60;;
45434;SDS011;31183;47.404;8.500;2023-06-10T13:07:14;7.45;;;6.85;;
45434;SDS011;31183;47.404;8.500;2023-06-10T13:09:41;8.75;;;8.05;;
45434;SDS011;31183;47.404;8.500;2023-06-10T13:12:08;7.35;;;6.75;;
45434;SDS011;31183;47.404;8.500;2023-06-10T13:14:42;7.15;;;6.45;;
45434;SDS011;31183;47.404;8.500;2023-06-10T13:17:08;10.70;;;6.78;;
45434;SDS011;31183;47.404;8.500;2023-06-10T13:19:35;7.03;;;6.32;;
45434;SDS011;31183;47.404;8.500;2023-06-10T13:22:02;7.50;;;6.80;;
45434;SDS011;31183;47.404;8.500;2023-06-10T13:24:29;7.07;;;6.47;;
45434;SDS011;31183;47.404;8.500;2023-06-10T13:26:56;7.60;;;6.90;;
45434;SDS011;31183;47.404;8.500;2023-06-10T13:29:23;7.82;;;7.03;;
45434;SDS011;31183;47.404;8.500;2023-06-10T13:31:50;7.90;;;7.00;;
45434;SDS011;31183;47.404;8.500;2023-06-10T13:34:17;10.23;;;8.73;;
45434;SDS011;31183;47.404;8.500;2023-06-10T13:36:43;7.93;;;7.15;;
45434;SDS011;31183;47.404;8.500;2023-06-10T13:39:10;8.13;;;7.35;;
45434;SDS011;31183;47.404;8.500;2023-06-10T13:41:37;7.20;;;6.60;;
45434;SDS011;31183;47.404;8.500;2023-06-10T13:44:03;7.95;;;7.32;;
45434;SDS011;31183;47.404;8.500;2023-06-10T13:46:30;7.60;;;6.90;;
45434;SDS011;31183;47.404;8.500;2023-06-10T13:48:57;7.47;;;6.78;;
45434;SDS011;31183;47.404;8.500;2023-06-10T13:51:23;8.05;;;7.30;;
45434;SDS011;31183;47.404;8.500;2023-06-10T13:53:50;7.35;;;6.72;;
45434;SDS011;31183;47.404;8.500;2023-06-10T13:56:18;7.25;;;6.55;;
45434;SDS011;31183;47.404;8.500;2023-06-10T13:58:45;8.57;;;7.20;;
45434;SDS011;31183;47.404;8.500;2023-06-10T14:01:11;8.63;;;7.45;;
45434;SDS011;31183;47.404;8.500;2023-06-10T14:03:38;8.07;;;7.47;;
45434;SDS011;31183;47.404;8.500;2023-06-10T14:06:05;7.72;;;6.97;;
45434;SDS011;31183;47.404;8.500;2023-06-10T14:08:31;7.35;;;6.75;;
45434;SDS011;31183;47.404;8.500;2023-06-10T14:10:58;7.50;;;6.88;;
45434;SDS011;31183;47.404;8.500;2023-06-10T14:13:25;7.68;;;6.80;;
45434;SDS011;31183;47.404;8.500;2023-06-10T14:15:51;7.43;;;6.70;;
45434;SDS011;31183;47.404;8.500;2023-06-10T14:18:18;9.07;;;7.20;;
45434;SDS011;31183;47.404;8.500;2023-06-10T14:20:45;7.50;;;6.80;;
45434;SDS011;31183;47.404;8.500;2023-06-10T14:23:11;7.75;;;7.05;;
45434;SDS011;31183;47.404;8.500;2023-06-10T14:25:38;7.38;;;6.60;;
45434;SDS011;31183;47.404;8.500;2023-06-10T14:28:05;7.03;;;6.43;;
45434;SDS011;31183;47.404;8.500;2023-06-10T14:30:31;8.23;;;7.53;;
45434;SDS011;31183;47.404;8.500;2023-06-10T14:32:58;7.90;;;6.55;;
45434;SDS011;31183;47.404;8.500;2023-06-10T14:35:25;7.10;;;6.50;;
45434;SDS011;31183;47.404;8.500;2023-06-10T14:37:51;6.22;;;5.63;;
45434;SDS011;31183;47.404;8.500;2023-06-10T14:40:18;12.98;;;5.57;;
45434;SDS011;31183;47.404;8.500;2023-06-10T14:42:47;5.75;;;5.15;;
45434;SDS011;31183;47.404;8.500;2023-06-10T14:45:14;5.30;;;4.80;;
45434;SDS011;31183;47.404;8.500;2023-06-10T14:47:41;6.55;;;5.30;;
45434;SDS011;31183;47.404;8.500;2023-06-10T14:50:08;6.47;;;5.00;;
45434;SDS011;31183;47.404;8.500;2023-06-10T14:52:35;5.65;;;5.18;;
45434;SDS011;31183;47.404;8.500;2023-06-10T14:55:01;7.47;;;6.78;;
45434;SDS011;31183;47.404;8.500;2023-06-10T14:57:28;6.28;;;5.70;;
45434;SDS011;31183;47.404;8.500;2023-06-10T14:59:55;6.20;;;5.60;;
45434;SDS011;31183;47.404;8.500;2023-06-10T15:02:22;7.25;;;6.45;;
45434;SDS011;31183;47.404;8.500;2023-06-10T15:04:49;7.15;;;5.60;;
45434;SDS011;31183;47.404;8.500;2023-06-10T15:07:16;7.15;;;6.45;;
45434;SDS011;31183;47.404;8.500;2023-06-10T15:09:43;8.68;;;5.53;;